Terminal Aerodrome Forecast
Issued by NWS

Home | Current Version | Previous Version | Text Only | Print | Product List | Glossary On
Versions: 1 2 3 4 5 6 7 8 9 10 11 12
000
FTUS44 KTSA 202300
TAFMLC
TAF
KMLC 202325Z 2100/2124 16005KT P6SM SCT050 BKN120
      TEMPO 2100/2104 5SM -SHRA BKN040
     FM210800 17005KT P6SM BKN020
     FM211200 20006KT P6SM OVC015 PROB30 2112/2116 5SM -SHRA
     FM211900 27005KT P6SM BKN030 PROB30 2119/2124 5SM -TSRA
      BKN020CB=

USA.gov is the U.S. government's official web portal to all federal, state and local government web resources and services.